createdAt,value
2023-01-23T00:01:26.491Z,9.13
2023-01-23T00:03:54.183Z,9.12
2023-01-23T00:06:20.860Z,9.13
2023-01-23T00:08:47.899Z,9.14
2023-01-23T00:11:20.635Z,9.18
2023-01-23T00:13:47.359Z,9.19
2023-01-23T00:16:17.323Z,9.19
2023-01-23T00:18:44.375Z,9.19
2023-01-23T00:21:13.364Z,9.19
2023-01-23T00:23:42.981Z,9.17
2023-01-23T00:26:12.489Z,9.18
2023-01-23T00:28:39.081Z,9.19
2023-01-23T00:31:13.073Z,9.21
2023-01-23T00:33:40.455Z,9.19
2023-01-23T00:36:07.585Z,9.18
2023-01-23T00:38:34.602Z,9.16
2023-01-23T00:41:02.354Z,9.15
2023-01-23T00:43:30.099Z,9.18
2023-01-23T00:45:57.257Z,9.18
2023-01-23T00:48:24.162Z,9.18
2023-01-23T00:50:51.112Z,9.17
2023-01-23T00:53:17.673Z,9.14
2023-01-23T00:55:44.204Z,9.14
2023-01-23T00:58:10.951Z,9.11
2023-01-23T01:00:38.092Z,9.08
2023-01-23T01:03:05.632Z,9.10
2023-01-23T01:05:32.498Z,9.06
2023-01-23T01:07:59.082Z,9.02
2023-01-23T01:10:29.427Z,9.00
2023-01-23T01:12:57.654Z,8.97
2023-01-23T01:15:24.446Z,8.97
2023-01-23T01:17:53.722Z,8.97
2023-01-23T01:20:23.537Z,8.97
2023-01-23T01:22:50.693Z,8.96
2023-01-23T01:25:17.845Z,8.97
2023-01-23T01:27:44.644Z,8.95
2023-01-23T01:30:12.063Z,8.95
2023-01-23T01:32:39.768Z,8.97
2023-01-23T01:35:07.334Z,8.99
2023-01-23T01:37:34.981Z,8.97
2023-01-23T01:40:01.678Z,8.97
2023-01-23T01:42:28.569Z,8.93
2023-01-23T01:44:59.905Z,8.88
2023-01-23T01:47:27.080Z,8.86
2023-01-23T01:49:57.334Z,8.86
2023-01-23T01:52:24.451Z,8.84
2023-01-23T01:54:56.048Z,8.84
2023-01-23T01:57:24.064Z,8.81
2023-01-23T02:00:09.349Z,8.80
2023-01-23T02:02:43.787Z,8.76
2023-01-23T02:05:16.239Z,8.70
2023-01-23T02:07:54.300Z,8.70
2023-01-23T02:10:22.116Z,8.68
2023-01-23T02:12:50.099Z,8.68
2023-01-23T02:15:17.837Z,8.70
2023-01-23T02:17:45.477Z,8.67
2023-01-23T02:20:21.384Z,8.67
2023-01-23T02:23:09.588Z,8.66
2023-01-23T02:25:44.955Z,8.64
2023-01-23T02:28:12.972Z,8.63
2023-01-23T02:30:41.107Z,8.64
2023-01-23T02:33:08.873Z,8.60
2023-01-23T02:35:35.866Z,8.54
2023-01-23T02:38:05.193Z,8.52
2023-01-23T02:40:37.302Z,8.49
2023-01-23T02:43:04.510Z,8.50
2023-01-23T02:45:31.338Z,8.51
2023-01-23T02:47:58.011Z,8.51
2023-01-23T02:50:24.578Z,8.50
2023-01-23T02:52:54.243Z,8.50
2023-01-23T02:55:22.076Z,8.49
2023-01-23T02:57:48.627Z,8.48
2023-01-23T03:00:20.748Z,8.45
2023-01-23T03:02:48.950Z,8.43
2023-01-23T03:05:16.631Z,8.43
2023-01-23T03:07:43.373Z,8.42
2023-01-23T03:10:11.389Z,8.41
2023-01-23T03:12:43.456Z,8.40
2023-01-23T03:15:10.171Z,8.37
2023-01-23T03:17:36.957Z,8.35
2023-01-23T03:20:05.997Z,8.31
2023-01-23T03:22:32.507Z,8.29
2023-01-23T03:24:59.094Z,8.27
2023-01-23T03:27:25.683Z,8.27
2023-01-23T03:30:10.827Z,8.25
2023-01-23T03:32:38.616Z,8.24
2023-01-23T03:35:06.992Z,8.26
2023-01-23T03:37:33.535Z,8.29
2023-01-23T03:40:18.903Z,8.29
2023-01-23T03:42:45.650Z,8.26
2023-01-23T03:45:12.236Z,8.20
2023-01-23T03:47:38.724Z,8.08
2023-01-23T03:50:06.322Z,8.04
2023-01-23T03:52:32.849Z,7.99
2023-01-23T03:54:59.416Z,7.97
2023-01-23T03:57:25.942Z,7.97
2023-01-23T03:59:52.437Z,7.95
2023-01-23T04:02:19.102Z,7.90
2023-01-23T04:04:45.734Z,7.84
2023-01-23T04:07:12.253Z,7.79
2023-01-23T04:09:38.863Z,7.69
2023-01-23T04:12:05.561Z,7.64
2023-01-23T04:14:37.191Z,7.60
2023-01-23T04:17:08.306Z,7.60
2023-01-23T04:19:35.365Z,7.58
2023-01-23T04:22:02.004Z,7.58
2023-01-23T04:24:28.522Z,7.58
2023-01-23T04:26:55.203Z,7.55
2023-01-23T04:29:21.754Z,7.56
2023-01-23T04:31:48.365Z,7.55
2023-01-23T04:34:14.931Z,7.53
2023-01-23T04:36:41.436Z,7.57
2023-01-23T04:39:08.056Z,7.64
2023-01-23T04:41:34.856Z,7.72
2023-01-23T04:44:20.500Z,7.78
2023-01-23T04:46:49.968Z,7.78
2023-01-23T04:49:18.715Z,7.75
2023-01-23T04:51:48.030Z,7.79
2023-01-23T04:54:15.244Z,7.84
2023-01-23T04:56:42.036Z,7.86
2023-01-23T04:59:08.598Z,7.88
2023-01-23T05:01:35.389Z,7.90
2023-01-23T05:04:02.177Z,7.95
2023-01-23T05:06:29.069Z,7.98
2023-01-23T05:08:55.680Z,8.03
2023-01-23T05:11:22.379Z,8.09
2023-01-23T05:13:49.052Z,8.11
2023-01-23T05:16:15.806Z,8.16
2023-01-23T05:18:42.325Z,8.19
2023-01-23T05:21:08.879Z,8.21
2023-01-23T05:23:35.471Z,8.22
2023-01-23T05:26:02.004Z,8.25
2023-01-23T05:28:28.606Z,8.29
2023-01-23T05:30:55.200Z,8.35
2023-01-23T05:33:21.937Z,8.37
2023-01-23T05:35:48.452Z,8.40
2023-01-23T05:38:15.034Z,8.41
2023-01-23T05:40:41.560Z,8.45
2023-01-23T05:43:11.523Z,8.51
2023-01-23T05:45:38.025Z,8.57
2023-01-23T05:48:04.786Z,8.64
2023-01-23T05:50:33.168Z,8.72
2023-01-23T05:53:00.936Z,8.76
2023-01-23T05:55:27.493Z,8.78
2023-01-23T05:57:53.972Z,8.76
2023-01-23T06:00:21.070Z,8.77
2023-01-23T06:02:48.121Z,8.78
2023-01-23T06:05:14.846Z,8.81
2023-01-23T06:07:41.380Z,8.84
2023-01-23T06:10:16.846Z,8.85
2023-01-23T06:12:43.684Z,8.85
2023-01-23T06:15:10.886Z,8.85
2023-01-23T06:17:37.470Z,8.89
2023-01-23T06:20:04.825Z,8.93
2023-01-23T06:22:31.610Z,8.97
2023-01-23T06:24:58.148Z,9.00
2023-01-23T06:27:24.731Z,8.99
2023-01-23T06:29:51.268Z,8.96
2023-01-23T06:32:17.831Z,8.91
2023-01-23T06:34:44.553Z,8.87
2023-01-23T06:37:11.220Z,8.85
2023-01-23T06:39:38.043Z,8.84
2023-01-23T06:42:06.080Z,8.93
2023-01-23T06:44:32.602Z,9.00
2023-01-23T06:46:59.131Z,9.05
2023-01-23T06:49:25.660Z,9.09
2023-01-23T06:51:52.180Z,9.12
2023-01-23T06:54:18.746Z,9.16
2023-01-23T06:56:45.317Z,9.18
2023-01-23T06:59:12.013Z,9.23
2023-01-23T07:01:38.638Z,9.29
2023-01-23T07:04:05.215Z,9.35
2023-01-23T07:06:31.970Z,9.51
2023-01-23T07:08:58.554Z,9.56
2023-01-23T07:11:25.350Z,9.60
2023-01-23T07:13:51.870Z,9.73
2023-01-23T07:16:19.296Z,9.84
2023-01-23T07:18:45.897Z,9.85
2023-01-23T07:21:12.463Z,9.85
2023-01-23T07:23:38.981Z,9.83
2023-01-23T07:26:09.730Z,9.77
2023-01-23T07:28:37.309Z,9.71
2023-01-23T07:31:04.292Z,9.65
2023-01-23T07:33:31.153Z,9.60
2023-01-23T07:35:57.664Z,9.48
2023-01-23T07:38:24.278Z,9.41
2023-01-23T07:40:51.123Z,9.29
2023-01-23T07:43:18.253Z,9.22
2023-01-23T07:45:45.108Z,9.13
2023-01-23T07:48:11.676Z,9.10
2023-01-23T07:50:38.219Z,9.08
2023-01-23T07:53:05.885Z,9.06
2023-01-23T07:55:32.397Z,9.01
2023-01-23T07:57:58.942Z,8.96
2023-01-23T08:00:29.238Z,8.88
2023-01-23T08:02:56.737Z,8.84
2023-01-23T08:05:23.316Z,8.79
2023-01-23T08:07:50.994Z,8.76
2023-01-23T08:10:19.277Z,8.69
2023-01-23T08:12:45.875Z,8.67
2023-01-23T08:15:12.593Z,8.70
2023-01-23T08:17:39.195Z,8.74
2023-01-23T08:20:06.211Z,8.73
2023-01-23T08:22:33.428Z,8.63
2023-01-23T08:24:59.980Z,8.52
2023-01-23T08:27:26.470Z,8.44
2023-01-23T08:29:53.037Z,8.35
2023-01-23T08:32:19.591Z,8.27
2023-01-23T08:34:46.191Z,8.20
2023-01-23T08:37:12.702Z,8.17
2023-01-23T08:39:39.221Z,8.15
2023-01-23T08:42:05.752Z,8.15
2023-01-23T08:44:34.272Z,8.18
2023-01-23T08:47:03.718Z,8.23
2023-01-23T08:49:30.286Z,8.28
2023-01-23T08:51:57.750Z,8.35
2023-01-23T08:54:24.427Z,8.32
2023-01-23T08:56:51.052Z,8.36
2023-01-23T08:59:17.613Z,8.38
2023-01-23T09:01:44.192Z,8.42
2023-01-23T09:04:10.700Z,8.47
2023-01-23T09:06:37.235Z,8.54
2023-01-23T09:09:03.827Z,8.61
2023-01-23T09:11:30.350Z,8.66
2023-01-23T09:13:58.175Z,8.72
2023-01-23T09:16:24.707Z,8.77
2023-01-23T09:18:51.238Z,8.84
2023-01-23T09:21:17.822Z,8.81
2023-01-23T09:23:44.391Z,8.74
2023-01-23T09:26:12.505Z,8.68
2023-01-23T09:28:42.052Z,8.65
2023-01-23T09:31:10.941Z,8.66
2023-01-23T09:33:37.831Z,8.71
2023-01-23T09:36:05.387Z,8.76
2023-01-23T09:38:34.044Z,8.78
2023-01-23T09:41:01.544Z,8.78
2023-01-23T09:43:31.137Z,8.81
2023-01-23T09:46:03.304Z,8.85
2023-01-23T09:48:45.133Z,8.90
2023-01-23T09:51:40.224Z,8.93
2023-01-23T09:54:46.547Z,8.94
2023-01-23T09:57:19.743Z,8.91
2023-01-23T10:00:00.123Z,8.92
2023-01-23T10:02:27.597Z,8.93
2023-01-23T10:04:54.560Z,8.92
2023-01-23T10:07:45.502Z,8.93
2023-01-23T10:10:43.088Z,9.01
2023-01-23T10:13:19.891Z,9.04
2023-01-23T10:16:12.989Z,9.10
2023-01-23T10:19:07.911Z,9.13
2023-01-23T10:21:37.245Z,9.13
2023-01-23T10:24:09.809Z,9.16
2023-01-23T10:26:42.424Z,9.15
2023-01-23T10:29:27.716Z,9.11
2023-01-23T10:31:58.654Z,9.09
2023-01-23T10:34:39.704Z,9.06
2023-01-23T10:37:46.247Z,9.04
2023-01-23T10:40:16.764Z,8.96
2023-01-23T10:42:43.561Z,8.91
2023-01-23T10:45:18.507Z,8.83
2023-01-23T10:47:51.999Z,8.68
2023-01-23T10:50:35.265Z,8.55
2023-01-23T10:53:12.053Z,8.43
2023-01-23T10:55:45.530Z,8.34
2023-01-23T10:58:28.713Z,8.31
2023-01-23T11:00:55.303Z,8.37
2023-01-23T11:03:21.797Z,8.42
2023-01-23T11:05:56.793Z,8.46
2023-01-23T11:08:27.595Z,8.48
2023-01-23T11:10:55.164Z,8.50
2023-01-23T11:13:27.997Z,8.52
2023-01-23T11:15:55.157Z,8.54
2023-01-23T11:18:34.149Z,8.54
2023-01-23T11:21:01.901Z,8.60
2023-01-23T11:23:29.485Z,8.67
2023-01-23T11:25:56.169Z,8.71
2023-01-23T11:28:30.919Z,8.72
2023-01-23T11:31:19.621Z,8.72
2023-01-23T11:33:52.323Z,8.63
2023-01-23T11:36:19.023Z,8.54
2023-01-23T11:38:52.617Z,8.44
2023-01-23T11:41:23.280Z,8.34
2023-01-23T11:43:49.855Z,8.32
2023-01-23T11:46:40.386Z,8.37
2023-01-23T11:49:28.846Z,8.41
2023-01-23T11:52:19.122Z,8.45
2023-01-23T11:54:45.663Z,8.49
2023-01-23T11:57:24.383Z,8.56
2023-01-23T12:00:02.555Z,8.59
2023-01-23T12:02:49.422Z,8.70
2023-01-23T12:05:16.379Z,8.72
2023-01-23T12:07:59.568Z,8.70
2023-01-23T12:10:42.441Z,8.65
2023-01-23T12:13:13.137Z,8.69
2023-01-23T12:15:51.781Z,8.79
2023-01-23T12:18:49.783Z,8.90
2023-01-23T12:21:22.860Z,8.94
2023-01-23T12:24:09.507Z,8.93
2023-01-23T12:26:41.360Z,8.92
2023-01-23T12:29:54.055Z,8.93
2023-01-23T12:32:53.106Z,9.02
2023-01-23T12:36:07.688Z,9.06
2023-01-23T12:38:42.525Z,9.06
2023-01-23T12:41:13.503Z,9.12
2023-01-23T12:44:10.279Z,9.21
2023-01-23T12:46:53.777Z,9.26
2023-01-23T12:49:41.179Z,9.31
2023-01-23T12:52:20.457Z,9.31
2023-01-23T12:54:53.169Z,9.32
2023-01-23T12:57:52.837Z,9.30
2023-01-23T13:01:06.930Z,9.21
2023-01-23T13:03:46.435Z,9.14
2023-01-23T13:06:37.605Z,9.09
2023-01-23T13:10:08.650Z,9.04
2023-01-23T13:12:35.377Z,8.96
2023-01-23T13:15:40.103Z,8.90
2023-01-23T13:18:22.750Z,8.87
2023-01-23T13:21:14.950Z,8.80
2023-01-23T13:23:41.537Z,8.67
2023-01-23T13:26:29.107Z,8.57
2023-01-23T13:28:57.561Z,8.50
2023-01-23T13:31:26.228Z,8.47
2023-01-23T13:33:58.748Z,8.50
2023-01-23T13:36:33.465Z,8.54
2023-01-23T13:39:22.493Z,8.61
2023-01-23T13:42:16.073Z,8.64
2023-01-23T13:45:16.755Z,8.69
2023-01-23T14:22:10.776Z,9.50
2023-01-23T14:24:45.869Z,9.57
2023-01-23T14:27:51.288Z,9.62
2023-01-23T14:30:24.003Z,9.64
2023-01-23T14:32:50.583Z,9.64
2023-01-23T14:35:23.785Z,9.67
2023-01-23T14:37:51.043Z,9.69
2023-01-23T14:40:27.230Z,9.71
2023-01-23T14:43:00.243Z,9.78
2023-01-23T14:45:32.194Z,9.79
2023-01-23T14:48:06.000Z,9.77
2023-01-23T14:50:33.791Z,9.75
2023-01-23T14:53:01.971Z,9.71
2023-01-23T14:55:30.272Z,9.65
2023-01-23T14:57:59.159Z,9.61
2023-01-23T15:00:26.447Z,9.58
2023-01-23T15:02:54.527Z,9.54
2023-01-23T15:05:23.710Z,9.55
2023-01-23T15:07:57.162Z,9.55
2023-01-23T15:10:25.439Z,9.53
2023-01-23T15:13:05.262Z,9.54
2023-01-23T15:15:33.411Z,9.49
2023-01-23T15:18:01.554Z,9.46
2023-01-23T15:20:38.354Z,9.43
2023-01-23T15:23:36.600Z,9.39
2023-01-23T15:26:18.258Z,9.34
2023-01-23T15:29:03.845Z,9.38
2023-01-23T15:31:32.411Z,9.40
2023-01-23T15:34:14.907Z,9.38
2023-01-23T15:37:06.466Z,9.42
2023-01-23T15:39:54.661Z,9.45
2023-01-23T15:42:33.213Z,9.47
2023-01-23T15:45:03.839Z,9.47
2023-01-23T15:47:31.473Z,9.48
2023-01-23T15:50:01.815Z,9.49
2023-01-23T15:52:48.918Z,9.51
2023-01-23T15:55:15.772Z,9.48
2023-01-23T15:57:43.419Z,9.46
2023-01-23T16:00:24.930Z,9.46
2023-01-23T16:02:56.693Z,9.50
2023-01-23T16:05:29.270Z,9.53
2023-01-23T16:07:57.447Z,9.57
2023-01-23T16:10:39.235Z,9.59
2023-01-23T16:13:07.601Z,9.61
2023-01-23T16:15:35.204Z,9.62
2023-01-23T16:18:04.577Z,9.63
2023-01-23T16:20:39.903Z,9.65
2023-01-23T16:23:16.651Z,9.66
2023-01-23T16:25:45.741Z,9.65
2023-01-23T16:28:18.352Z,9.66
2023-01-23T16:30:45.286Z,9.64
2023-01-23T16:33:12.219Z,9.61
2023-01-23T16:35:39.036Z,9.60
2023-01-23T16:38:06.416Z,9.60
2023-01-23T16:40:34.235Z,9.58
2023-01-23T16:43:02.986Z,9.53
2023-01-23T16:45:31.118Z,9.52
2023-01-23T16:47:57.852Z,9.51
2023-01-23T16:50:40.764Z,9.48
2023-01-23T16:53:10.253Z,9.45
2023-01-23T16:55:40.282Z,9.42
2023-01-23T16:58:10.450Z,9.42
2023-01-23T17:00:37.110Z,9.46
2023-01-23T17:03:08.564Z,9.53
2023-01-23T17:05:35.243Z,9.59
2023-01-23T17:08:17.830Z,9.60
2023-01-23T17:10:47.043Z,9.57
2023-01-23T17:13:14.527Z,9.59
2023-01-23T17:15:41.468Z,9.58
2023-01-23T17:18:22.474Z,9.58
2023-01-23T17:20:49.210Z,9.63
2023-01-23T17:23:15.864Z,9.67
2023-01-23T17:25:59.079Z,9.69
2023-01-23T17:28:26.754Z,9.70
2023-01-23T17:30:54.170Z,9.71
2023-01-23T17:33:21.480Z,9.68
2023-01-23T17:35:48.522Z,9.64
2023-01-23T17:38:20.107Z,9.62
2023-01-23T17:40:46.920Z,9.62
2023-01-23T17:43:14.422Z,9.60
2023-01-23T17:45:43.096Z,9.59
2023-01-23T17:48:37.217Z,9.57
2023-01-23T17:51:04.034Z,9.51
2023-01-23T17:53:30.864Z,9.52
2023-01-23T17:55:57.510Z,9.50
2023-01-23T17:58:24.118Z,9.43
2023-01-23T18:00:53.353Z,9.42
2023-01-23T18:03:21.828Z,9.41
2023-01-23T18:05:48.775Z,9.41
2023-01-23T18:08:17.076Z,9.41
2023-01-23T18:10:49.206Z,9.43
2023-01-23T18:13:33.797Z,9.42
2023-01-23T18:16:08.127Z,9.40
2023-01-23T18:18:39.092Z,9.43
2023-01-23T18:21:07.700Z,9.40
2023-01-23T18:23:37.893Z,9.41
2023-01-23T18:26:39.111Z,9.46
2023-01-23T18:29:17.983Z,9.51
2023-01-23T18:31:56.546Z,9.52
2023-01-23T18:34:53.574Z,9.54
2023-01-23T18:37:45.813Z,9.58
2023-01-23T18:40:23.765Z,9.60
2023-01-23T18:43:08.709Z,9.63
2023-01-23T18:45:35.600Z,9.65
2023-01-23T18:48:02.461Z,9.69
2023-01-23T18:50:29.377Z,9.73
2023-01-23T18:53:06.201Z,9.78
2023-01-23T18:55:35.631Z,9.81
2023-01-23T18:58:29.275Z,9.83
2023-01-23T19:01:17.850Z,9.87
2023-01-23T19:03:45.559Z,9.91
2023-01-23T19:06:20.383Z,9.93
2023-01-23T19:08:47.963Z,9.95
2023-01-23T19:11:25.627Z,9.96
2023-01-23T19:14:11.581Z,9.99
2023-01-23T19:16:42.340Z,9.95
2023-01-23T19:19:21.304Z,9.94
2023-01-23T19:21:48.136Z,9.91
2023-01-23T19:24:18.649Z,9.91
2023-01-23T19:26:45.654Z,9.87
2023-01-23T19:29:22.929Z,9.82
2023-01-23T19:32:03.631Z,9.80
2023-01-23T19:34:31.210Z,9.79
2023-01-23T19:36:57.809Z,9.75
2023-01-23T19:39:24.432Z,9.72
2023-01-23T19:41:51.957Z,9.71
2023-01-23T19:44:19.883Z,9.75
2023-01-23T19:46:47.076Z,9.74
2023-01-23T19:49:14.082Z,9.71
2023-01-23T19:51:41.070Z,9.70
2023-01-23T19:54:09.459Z,9.66
2023-01-23T19:56:36.556Z,9.66
2023-01-23T19:59:03.135Z,9.62
2023-01-23T20:01:40.414Z,9.61
2023-01-23T20:04:16.074Z,9.61
2023-01-23T20:06:45.350Z,9.61
2023-01-23T20:09:14.564Z,9.64
2023-01-23T20:11:42.016Z,9.66
2023-01-23T20:14:08.564Z,9.70
2023-01-23T20:16:35.223Z,9.72
2023-01-23T20:19:01.801Z,9.75
2023-01-23T20:21:28.371Z,9.75
2023-01-23T20:23:54.880Z,9.76
2023-01-23T20:26:21.856Z,9.80
2023-01-23T20:28:50.318Z,9.82
2023-01-23T20:31:17.460Z,9.83
2023-01-23T20:33:44.108Z,9.81
2023-01-23T20:36:11.547Z,9.78
2023-01-23T20:38:39.017Z,9.78
2023-01-23T20:41:11.692Z,9.76
2023-01-23T20:43:38.616Z,9.70
2023-01-23T20:46:06.677Z,9.69
2023-01-23T20:48:34.791Z,9.66
2023-01-23T20:51:01.315Z,9.64
2023-01-23T20:53:30.782Z,9.62
2023-01-23T20:56:19.044Z,9.57
2023-01-23T20:59:06.432Z,9.53
2023-01-23T21:01:56.700Z,9.53
2023-01-23T21:04:25.216Z,9.53
2023-01-23T21:06:51.979Z,9.53
2023-01-23T21:09:18.779Z,9.50
2023-01-23T21:11:45.565Z,9.50
2023-01-23T21:14:13.354Z,9.51
2023-01-23T21:16:39.986Z,9.49
2023-01-23T21:19:06.505Z,9.44
2023-01-23T21:21:33.162Z,9.34
2023-01-23T21:23:59.906Z,9.28
2023-01-23T21:26:27.761Z,9.32
2023-01-23T21:28:55.943Z,9.38
2023-01-23T21:31:25.300Z,9.27
2023-01-23T21:33:51.898Z,9.16
2023-01-23T21:36:21.400Z,9.05
2023-01-23T21:38:48.979Z,8.92
2023-01-23T21:41:16.955Z,8.89
2023-01-23T21:43:43.654Z,8.93
2023-01-23T21:46:10.348Z,8.91
2023-01-23T21:48:37.103Z,8.84
2023-01-23T21:51:12.054Z,8.76
2023-01-23T21:53:40.096Z,8.69
2023-01-23T21:56:08.098Z,8.63
2023-01-23T21:58:34.971Z,8.62
2023-01-23T22:01:22.971Z,8.63
2023-01-23T22:03:49.883Z,8.58
2023-01-23T22:06:16.717Z,8.48
2023-01-23T22:08:43.208Z,8.36
2023-01-23T22:11:10.790Z,8.22
2023-01-23T22:13:38.023Z,8.07
2023-01-23T22:16:05.423Z,7.95
2023-01-23T22:18:32.937Z,7.87
2023-01-23T22:21:01.786Z,7.82
2023-01-23T22:23:28.661Z,7.80
2023-01-23T22:25:57.354Z,7.71
2023-01-23T22:28:23.915Z,7.63
2023-01-23T22:30:50.473Z,7.57
2023-01-23T22:33:17.327Z,7.49
2023-01-23T22:35:44.303Z,7.47
2023-01-23T22:38:12.492Z,7.43
2023-01-23T22:40:39.052Z,7.38
2023-01-23T22:43:06.965Z,7.39
2023-01-23T22:45:33.581Z,7.38
2023-01-23T22:48:00.179Z,7.34
2023-01-23T22:50:27.507Z,7.37
2023-01-23T22:52:54.074Z,7.42
2023-01-23T22:55:21.011Z,7.44
2023-01-23T22:57:47.725Z,7.43
2023-01-23T23:00:16.169Z,7.38
2023-01-23T23:02:42.831Z,7.40
2023-01-23T23:05:09.717Z,7.45
2023-01-23T23:07:36.863Z,7.42
2023-01-23T23:10:11.110Z,7.37
2023-01-23T23:12:37.774Z,7.34
2023-01-23T23:15:04.817Z,7.30
2023-01-23T23:17:31.385Z,7.30
2023-01-23T23:19:57.946Z,7.27
2023-01-23T23:22:24.573Z,7.22
2023-01-23T23:24:51.081Z,7.17
2023-01-23T23:27:17.575Z,7.08
2023-01-23T23:29:44.236Z,7.05
2023-01-23T23:32:10.918Z,7.01
2023-01-23T23:34:37.540Z,6.97
2023-01-23T23:37:04.177Z,7.00
2023-01-23T23:39:30.761Z,7.02
2023-01-23T23:41:58.621Z,7.08
2023-01-23T23:44:25.934Z,7.16
2023-01-23T23:46:52.480Z,7.23
2023-01-23T23:49:19.027Z,7.21
2023-01-23T23:51:45.579Z,7.20
2023-01-23T23:54:12.168Z,7.17
2023-01-23T23:56:38.700Z,7.18
2023-01-23T23:59:05.239Z,7.23
